Adolphus, Kentucky
Current Conditions -  °F | °C
As of 6:53 PM on Tuesday 21 Oct 2014 (Local Time) from KBWG Reporting Station
Clear Clear  
Wind Chill: 58°   Ceiling: Unl
Heat Index: 58°   Visibility: 10mi
Dew Point: 42°   Wind: 3mph
Humidity: 56%   Direction: 360°N
Pressure: 30.1"   Gusts: NA
Location:  36.65°N, 86.26°W
Report Text: KBWG 212353Z AUTO 36003KT 10SM CLR 14/06 A3010 RMK AO2 SLP192 T01440056 10206 20144 53017
Loading
Personal Weather Stations






























Interactive Weather Map
Tropical Storm Tracking
New forecast layout! Learn more

10-Day Weather Forecast

Advertisements
Track Severe Weather on mobile